< Typhoon 195101 1951 Season Typhoon 195103 >
Typhoon 195102 (GEORGIA)
General InformationTrack Information on Google Maps || Disaster Info.ResourceGoogle EarthGE AnimationAtom FeedGeoJSON
Detalied Best Track (Time Zone = UTC)
Year Month Day Hour Lat. Long. Pressure (hPa) Wind (kt) Class Image Chart
1951 3 18 06 5.7 158.3 1002 0 2 -- Chart
1951 3 18 12 6.0 159.4 1002 0 2 -- Chart
1951 3 18 18 6.4 160.4 1000 0 2 -- Chart
1951 3 19 00 6.7 161.4 1000 0 2 -- Chart
1951 3 19 06 7.0 162.5 998 0 2 -- Chart
1951 3 19 12 7.3 163.5 998 0 2 -- Chart
1951 3 19 18 7.5 164.7 994 0 2 -- Chart
1951 3 20 00 7.6 166.2 990 0 2 -- Chart
1951 3 20 06 7.8 167.4 990 0 2 -- Chart
1951 3 20 12 8.0 168.5 985 0 2 -- Chart
1951 3 20 18 8.2 169.5 980 0 9 -- Chart
1951 3 21 00 8.5 170.5 980 0 9 -- Chart
1951 3 21 06 8.8 171.6 978 0 9 -- Chart
1951 3 21 12 9.1 171.9 978 0 9 -- Chart
1951 3 21 18 9.4 172.2 978 0 9 -- Chart
1951 3 22 00 9.8 172.2 970 0 9 -- Chart
1951 3 22 06 10.2 172.0 970 0 9 -- Chart
1951 3 22 12 10.3 171.7 970 0 9 -- Chart
1951 3 22 18 10.5 171.4 970 0 9 -- Chart
1951 3 23 00 10.7 171.1 970 0 9 -- Chart
1951 3 23 06 11.0 170.7 975 0 9 -- Chart
1951 3 23 12 11.3 169.6 980 0 9 -- Chart
1951 3 23 18 11.0 168.4 985 0 9 -- Chart
1951 3 24 00 10.5 166.8 985 0 9 -- Chart
1951 3 24 06 10.3 165.2 985 0 9 -- Chart
1951 3 24 12 10.2 163.6 990 0 9 -- Chart
1951 3 24 18 10.3 162.6 995 0 9 -- Chart
1951 3 25 00 10.7 162.2 1000 0 9 -- Chart
1951 3 25 06 11.2 161.7 1000 0 2 -- Chart
1951 3 25 12 11.3 161.2 1004 0 2 -- Chart
1951 3 25 18 11.3 160.3 1004 0 2 -- Chart
1951 3 26 00 10.9 159.5 1006 0 2 -- Chart
1951 3 26 06 10.5 158.7 1006 0 2 -- Chart
1951 3 26 12 10.2 157.8 1006 0 2 -- Chart
1951 3 26 18 10.0 156.8 1006 0 2 -- Chart
1951 3 27 00 10.0 155.9 1006 0 2 -- Chart
1951 3 27 06 10.0 155.0 1006 0 2 -- Chart
Japan Meteorological Agency Best Track Data | Correction Date : 2013-03-19
< Typhoon 195101 1951 Season Typhoon 195103 >

Help